Time;durP1;ratioP1;P1;durP2;ratioP2;P2;SDS_P1;SDS_P2;PMS_P1;PMS_P2;Temp;Humidity;BMP_temperature;BMP_pressure;BME280_temperature;BME280_humidity;BME280_pressure;Samples;Min_cycle;Max_cycle;Signal;HPM_P1;HPM_P2
2023/09/12 00:00:48;;;;;;;66.18;37.72;;;20.30;99.90;;;;;;5088975;28;20036;-78
2023/09/12 00:03:14;;;;;;;66.15;38.90;;;20.20;99.90;;;;;;5089246;28;20030;-78
2023/09/12 00:05:40;;;;;;;66.30;38.67;;;20.20;99.90;;;;;;5080198;28;20048;-79
2023/09/12 00:08:06;;;;;;;71.22;40.60;;;20.20;99.90;;;;;;5090799;28;20051;-78
2023/09/12 00:10:32;;;;;;;76.68;42.45;;;20.20;99.90;;;;;;5093643;28;20016;-79
2023/09/12 00:13:00;;;;;;;73.55;42.58;;;20.20;99.90;;;;;;5084516;28;20459;-78
2023/09/12 00:15:26;;;;;;;81.57;42.63;;;20.10;99.90;;;;;;5086673;28;20020;-79
2023/09/12 00:17:51;;;;;;;75.55;42.58;;;20.10;99.90;;;;;;5086736;28;20024;-79
2023/09/12 00:20:17;;;;;;;72.43;41.95;;;20.00;99.90;;;;;;5093020;28;20012;-79
2023/09/12 00:22:43;;;;;;;77.85;41.97;;;20.00;99.90;;;;;;5085219;28;20032;-78
2023/09/12 00:25:08;;;;;;;69.82;40.00;;;20.00;99.90;;;;;;5091332;28;20345;-78
2023/09/12 00:27:34;;;;;;;67.95;39.75;;;19.90;99.90;;;;;;5082542;28;20111;-78
2023/09/12 00:29:59;;;;;;;71.40;40.25;;;19.90;99.90;;;;;;5077843;28;20031;-78
2023/09/12 00:32:25;;;;;;;70.15;39.60;;;19.90;99.90;;;;;;5083517;28;20028;-78
2023/09/12 00:34:51;;;;;;;68.50;38.78;;;19.80;99.90;;;;;;5084441;28;20451;-78
2023/09/12 00:37:16;;;;;;;70.40;38.58;;;19.70;99.90;;;;;;5087031;28;20065;-78
2023/09/12 00:39:42;;;;;;;74.60;40.10;;;19.70;99.90;;;;;;5092360;28;20050;-78
2023/09/12 00:42:08;;;;;;;67.30;38.97;;;19.70;99.90;;;;;;5090435;28;20024;-78
2023/09/12 00:44:34;;;;;;;74.97;40.90;;;19.60;99.90;;;;;;5082100;28;20026;-78
2023/09/12 00:47:01;;;;;;;73.13;41.10;;;19.60;99.90;;;;;;5092846;28;20047;-78
2023/09/12 00:49:27;;;;;;;73.35;39.88;;;19.50;99.90;;;;;;5080340;28;20017;-78
2023/09/12 00:51:55;;;;;;;72.72;39.13;;;19.50;99.90;;;;;;5080496;28;20054;-78
2023/09/12 00:54:21;;;;;;;72.88;39.33;;;19.40;99.90;;;;;;5081642;28;20034;-79
2023/09/12 00:56:47;;;;;;;71.28;38.03;;;19.40;99.90;;;;;;5080201;28;20099;-78
2023/09/12 00:59:15;;;;;;;75.05;38.35;;;19.40;99.90;;;;;;5078914;28;20052;-78
2023/09/12 01:01:41;;;;;;;68.43;36.40;;;19.40;99.90;;;;;;5088719;28;20375;-78
2023/09/12 01:04:07;;;;;;;71.03;37.00;;;19.40;99.90;;;;;;5090624;28;20012;-78
2023/09/12 01:06:34;;;;;;;69.75;37.90;;;19.30;99.90;;;;;;5086773;28;20047;-78
2023/09/12 01:09:00;;;;;;;67.78;36.20;;;19.30;99.90;;;;;;5089525;28;20016;-78
2023/09/12 01:11:27;;;;;;;75.18;36.90;;;19.30;99.90;;;;;;5092729;28;20024;-78
2023/09/12 01:13:52;;;;;;;71.38;36.83;;;19.30;99.90;;;;;;5096052;28;20125;-79
2023/09/12 01:16:18;;;;;;;69.85;37.53;;;19.20;99.90;;;;;;5093806;28;20095;-78
2023/09/12 01:18:45;;;;;;;63.95;34.95;;;19.20;99.90;;;;;;5088875;28;20019;-78
2023/09/12 01:21:38;;;;;;;64.40;35.22;;;19.20;99.90;;;;;;5092935;28;20024;-78
2023/09/12 01:24:31;;;;;;;61.92;34.03;;;19.20;99.90;;;;;;5078840;28;20020;-78
2023/09/12 01:27:15;;;;;;;61.03;31.63;;;19.20;99.90;;;;;;5073914;28;20036;-78
2023/09/12 01:29:43;;;;;;;55.03;31.02;;;19.20;99.90;;;;;;5078827;28;20313;-79
2023/09/12 01:32:09;;;;;;;57.10;30.67;;;19.20;99.90;;;;;;5091299;28;20027;-78
2023/09/12 01:34:35;;;;;;;56.53;29.80;;;19.10;99.90;;;;;;5083418;28;20023;-78
2023/09/12 01:37:01;;;;;;;49.22;28.60;;;19.10;99.90;;;;;;5087169;28;20084;-78
2023/09/12 01:39:26;;;;;;;51.67;28.58;;;19.10;99.90;;;;;;5094069;28;20016;-78
2023/09/12 01:41:54;;;;;;;51.03;27.70;;;19.20;99.90;;;;;;5079956;28;20077;-78
2023/09/12 01:44:23;;;;;;;50.05;28.48;;;19.20;99.90;;;;;;5088236;28;20437;-78
2023/09/12 01:46:52;;;;;;;51.00;27.92;;;19.20;99.90;;;;;;5089342;28;20030;-78
2023/09/12 01:49:21;;;;;;;49.33;26.70;;;19.20;99.90;;;;;;5093656;28;20424;-78
2023/09/12 01:51:47;;;;;;;48.72;25.65;;;19.20;99.90;;;;;;5089528;28;20039;-78
2023/09/12 01:54:14;;;;;;;44.53;26.13;;;19.20;99.90;;;;;;5091317;28;20487;-78
2023/09/12 01:56:40;;;;;;;45.75;25.38;;;19.20;99.90;;;;;;5092545;28;20103;-78
2023/09/12 01:59:06;;;;;;;38.58;23.30;;;19.20;99.90;;;;;;5085957;28;20093;-77
2023/09/12 02:01:32;;;;;;;46.60;25.60;;;19.20;99.90;;;;;;5077895;28;20025;-78
2023/09/12 02:03:58;;;;;;;40.60;24.17;;;19.20;99.90;;;;;;5078602;28;20464;-78
2023/09/12 02:06:23;;;;;;;42.67;25.55;;;19.20;99.90;;;;;;5074126;28;20025;-77
2023/09/12 02:08:49;;;;;;;46.60;25.02;;;19.20;99.90;;;;;;5084984;28;20134;-78
2023/09/12 02:11:14;;;;;;;47.38;26.17;;;19.20;99.90;;;;;;5084500;28;20020;-78
2023/09/12 02:13:40;;;;;;;44.58;26.52;;;19.20;99.90;;;;;;5072347;28;20139;-77
2023/09/12 02:16:06;;;;;;;42.50;24.63;;;19.20;99.90;;;;;;5077230;28;20024;-77
2023/09/12 02:18:31;;;;;;;41.80;24.98;;;19.20;99.90;;;;;;5087680;28;20012;-77
2023/09/12 02:20:58;;;;;;;46.15;26.40;;;19.20;99.90;;;;;;5073443;28;20213;-78
2023/09/12 02:23:24;;;;;;;52.10;26.70;;;19.20;99.90;;;;;;5082496;28;20035;-78
2023/09/12 02:25:50;;;;;;;48.20;26.98;;;19.20;99.90;;;;;;5080722;28;20095;-77
2023/09/12 02:28:15;;;;;;;51.00;28.90;;;19.10;99.90;;;;;;5087453;28;20402;-77
2023/09/12 02:30:41;;;;;;;49.80;27.58;;;19.10;99.90;;;;;;5091358;28;20038;-78
2023/09/12 02:33:07;;;;;;;57.65;30.38;;;19.20;99.90;;;;;;5087121;28;20016;-77
2023/09/12 02:35:32;;;;;;;50.72;28.67;;;19.10;99.90;;;;;;5078639;28;20479;-77
2023/09/12 02:37:58;;;;;;;57.45;30.08;;;19.10;99.90;;;;;;5072819;28;20012;-78
2023/09/12 02:40:24;;;;;;;54.97;29.15;;;19.10;99.90;;;;;;5080867;28;20020;-77
2023/09/12 02:42:51;;;;;;;62.17;31.05;;;19.10;99.90;;;;;;5080499;28;20103;-77
2023/09/12 02:45:16;;;;;;;56.90;30.45;;;19.10;99.90;;;;;;5085479;28;20017;-77
2023/09/12 02:47:43;;;;;;;60.45;32.17;;;19.10;99.90;;;;;;5079075;28;20347;-77
2023/09/12 02:50:09;;;;;;;65.57;33.22;;;19.00;99.90;;;;;;5091005;28;20013;-77
2023/09/12 02:52:35;;;;;;;61.08;32.72;;;19.10;99.90;;;;;;5080317;28;20025;-77
2023/09/12 02:55:01;;;;;;;63.00;33.28;;;19.00;99.90;;;;;;5086953;28;20031;-77
2023/09/12 02:57:26;;;;;;;67.10;32.83;;;19.00;99.90;;;;;;5090840;28;20103;-77
2023/09/12 02:59:52;;;;;;;65.88;32.85;;;19.00;99.90;;;;;;5090543;28;20036;-77
2023/09/12 03:02:17;;;;;;;63.92;33.03;;;19.10;99.90;;;;;;5086487;28;20413;-77
2023/09/12 03:04:43;;;;;;;63.35;31.67;;;19.10;99.90;;;;;;5091350;28;20035;-77
2023/09/12 03:07:09;;;;;;;66.65;33.35;;;19.10;99.90;;;;;;5090745;28;20028;-77
2023/09/12 03:09:34;;;;;;;67.78;33.67;;;19.20;99.90;;;;;;5081176;28;20027;-77
2023/09/12 03:12:03;;;;;;;67.63;34.03;;;19.20;99.90;;;;;;5073428;28;20133;-77
2023/09/12 03:14:29;;;;;;;61.65;31.98;;;19.20;99.90;;;;;;5090906;28;20105;-77
2023/09/12 03:16:55;;;;;;;66.82;34.25;;;19.20;99.90;;;;;;5082078;28;20051;-77
2023/09/12 03:19:21;;;;;;;62.95;32.75;;;19.30;99.90;;;;;;5084911;28;20028;-77
2023/09/12 03:21:47;;;;;;;67.07;34.13;;;19.30;99.90;;;;;;5088380;28;20407;-77
2023/09/12 03:24:13;;;;;;;69.90;35.40;;;19.30;99.90;;;;;;5090210;28;20020;-77
2023/09/12 03:26:38;;;;;;;64.03;34.00;;;19.30;99.90;;;;;;5072850;28;20021;-77
2023/09/12 03:29:04;;;;;;;73.72;35.83;;;19.30;99.90;;;;;;5081978;28;20489;-77
2023/09/12 03:31:30;;;;;;;71.97;33.70;;;19.40;99.90;;;;;;5089900;28;20494;-77
2023/09/12 03:33:56;;;;;;;63.08;33.60;;;19.40;99.90;;;;;;5079197;28;20025;-77
2023/09/12 03:36:21;;;;;;;64.95;33.15;;;19.40;99.90;;;;;;5088352;28;20032;-77
2023/09/12 03:38:47;;;;;;;65.50;32.63;;;19.40;99.90;;;;;;5075716;28;20040;-77
2023/09/12 03:41:13;;;;;;;67.60;34.17;;;19.40;99.90;;;;;;5074968;28;20043;-77
2023/09/12 03:43:38;;;;;;;69.53;34.25;;;19.40;99.90;;;;;;5078698;28;20016;-77
2023/09/12 03:46:04;;;;;;;68.88;34.63;;;19.40;99.90;;;;;;5078522;28;20016;-77
2023/09/12 03:48:31;;;;;;;68.20;34.67;;;19.40;99.90;;;;;;5081130;28;20027;-77
2023/09/12 03:50:57;;;;;;;60.85;32.70;;;19.40;99.90;;;;;;5082937;28;20024;-77
2023/09/12 03:53:23;;;;;;;68.40;34.50;;;19.50;99.90;;;;;;5085073;28;20024;-77
2023/09/12 03:55:48;;;;;;;72.97;34.47;;;19.50;99.90;;;;;;5077151;28;20116;-77
2023/09/12 03:58:14;;;;;;;79.38;36.90;;;19.50;99.90;;;;;;5081681;28;20080;-76
2023/09/12 04:00:40;;;;;;;81.32;37.70;;;19.50;99.90;;;;;;5085921;28;20520;-77
2023/09/12 04:03:05;;;;;;;82.70;38.03;;;19.50;99.90;;;;;;5080149;28;20024;-77
2023/09/12 04:05:31;;;;;;;84.80;37.63;;;19.50;99.90;;;;;;5076661;28;20024;-77
2023/09/12 04:07:57;;;;;;;80.32;38.00;;;19.50;99.90;;;;;;5075507;28;20080;-77
2023/09/12 04:10:23;;;;;;;77.28;37.28;;;19.50;99.90;;;;;;5086625;28;20020;-77
2023/09/12 04:12:48;;;;;;;82.85;39.10;;;19.50;99.90;;;;;;5089977;28;20456;-77
2023/09/12 04:15:14;;;;;;;83.10;38.78;;;19.60;99.90;;;;;;5088732;28;20021;-77
2023/09/12 04:17:40;;;;;;;82.47;39.17;;;19.60;99.90;;;;;;5082845;28;20133;-76
2023/09/12 04:20:06;;;;;;;87.38;40.67;;;19.60;99.90;;;;;;5080069;28;20025;-76
2023/09/12 04:22:33;;;;;;;86.28;39.40;;;19.60;99.90;;;;;;5092501;28;20081;-77
2023/09/12 04:24:58;;;;;;;90.78;40.50;;;19.60;99.90;;;;;;5083514;28;20025;-77
2023/09/12 04:27:24;;;;;;;88.03;40.00;;;19.60;99.90;;;;;;5085064;28;20021;-78
2023/09/12 04:29:50;;;;;;;83.93;38.42;;;19.60;99.90;;;;;;5087154;28;20039;-77
2023/09/12 04:32:18;;;;;;;85.78;39.20;;;19.60;99.90;;;;;;5094156;28;20479;-73
2023/09/12 04:34:44;;;;;;;88.15;39.95;;;19.60;99.90;;;;;;5088839;28;20532;-73
2023/09/12 04:37:10;;;;;;;91.18;41.85;;;19.60;99.90;;;;;;5083573;28;20020;-73
2023/09/12 04:39:35;;;;;;;93.90;41.75;;;19.70;99.90;;;;;;5075917;28;20016;-74
2023/09/12 04:42:01;;;;;;;92.32;42.28;;;19.70;99.90;;;;;;5091977;28;20032;-73
2023/09/12 04:44:26;;;;;;;92.88;42.38;;;19.70;99.90;;;;;;5088382;28;20069;-74
2023/09/12 04:46:52;;;;;;;96.97;43.55;;;19.70;99.90;;;;;;5076070;28;20531;-74
2023/09/12 04:49:21;;;;;;;95.78;43.13;;;19.80;99.90;;;;;;5081133;28;20012;-74
2023/09/12 04:51:46;;;;;;;95.72;44.20;;;19.80;99.90;;;;;;5082274;28;20012;-74
2023/09/12 04:54:12;;;;;;;99.03;44.00;;;19.80;99.90;;;;;;5085682;28;20025;-74
2023/09/12 04:56:38;;;;;;;100.88;43.55;;;19.80;99.90;;;;;;5085865;28;20013;-73
2023/09/12 04:59:03;;;;;;;98.97;43.90;;;19.80;99.90;;;;;;5092502;28;20442;-73
2023/09/12 05:01:29;;;;;;;98.97;42.90;;;19.90;99.90;;;;;;5090320;28;20024;-74
2023/09/12 05:03:55;;;;;;;100.55;44.40;;;19.90;99.90;;;;;;5085817;28;20148;-73
2023/09/12 05:06:20;;;;;;;93.53;42.75;;;19.90;99.90;;;;;;5086171;28;20008;-74
2023/09/12 05:08:46;;;;;;;98.68;44.00;;;19.90;99.90;;;;;;5085025;28;20027;-73
2023/09/12 05:11:12;;;;;;;93.03;43.05;;;19.90;99.90;;;;;;5090238;28;20020;-74
2023/09/12 05:13:37;;;;;;;91.95;41.30;;;20.00;99.90;;;;;;5087762;28;20098;-73
2023/09/12 05:16:03;;;;;;;99.85;43.67;;;20.00;99.90;;;;;;5094459;28;20058;-73
2023/09/12 05:18:29;;;;;;;96.22;43.95;;;20.00;99.90;;;;;;5095417;28;20345;-73
2023/09/12 05:20:54;;;;;;;100.35;44.05;;;20.00;99.90;;;;;;5085113;28;20064;-73
2023/09/12 05:23:20;;;;;;;100.47;43.55;;;20.00;99.90;;;;;;5087924;28;20020;-73
2023/09/12 05:25:46;;;;;;;98.55;42.72;;;20.00;99.90;;;;;;5075153;28;20016;-73
2023/09/12 05:28:15;;;;;;;93.57;43.50;;;20.00;99.90;;;;;;5076201;28;20020;-73
2023/09/12 05:30:44;;;;;;;95.57;41.88;;;20.10;99.90;;;;;;5084209;28;20013;-73
2023/09/12 05:33:10;;;;;;;97.63;42.95;;;20.10;99.90;;;;;;5082919;28;20024;-73
2023/09/12 05:35:37;;;;;;;95.20;42.85;;;20.10;99.90;;;;;;5077186;28;20077;-73
2023/09/12 05:38:03;;;;;;;92.07;41.90;;;20.10;99.90;;;;;;5086068;28;20031;-72
2023/09/12 05:40:28;;;;;;;94.57;42.17;;;20.10;99.90;;;;;;5080625;28;20033;-72
2023/09/12 05:42:54;;;;;;;95.90;40.88;;;20.10;99.90;;;;;;5082611;28;20088;-72
2023/09/12 05:45:20;;;;;;;95.68;42.15;;;20.10;99.90;;;;;;5084156;28;20048;-72
2023/09/12 05:47:45;;;;;;;89.57;39.78;;;20.10;99.90;;;;;;5090906;28;20024;-72
2023/09/12 05:50:11;;;;;;;96.63;43.13;;;20.10;99.90;;;;;;5090257;28;20024;-73
2023/09/12 05:52:37;;;;;;;84.03;40.45;;;20.10;99.90;;;;;;5087627;28;20084;-72
2023/09/12 05:55:04;;;;;;;88.68;41.47;;;20.10;99.90;;;;;;5091393;28;20028;-73
2023/09/12 05:57:35;;;;;;;86.03;40.67;;;20.20;99.90;;;;;;5087783;28;20020;-73
2023/09/12 06:00:00;;;;;;;88.70;40.90;;;20.20;99.90;;;;;;5085065;28;20040;-73
2023/09/12 06:02:27;;;;;;;88.95;41.50;;;20.20;99.90;;;;;;5087291;28;20452;-73
2023/09/12 06:04:53;;;;;;;93.32;42.30;;;20.20;99.90;;;;;;5087543;28;20560;-73
2023/09/12 06:07:19;;;;;;;95.22;43.53;;;20.30;99.90;;;;;;5088852;28;20051;-73
2023/09/12 06:09:45;;;;;;;89.97;41.00;;;20.30;99.90;;;;;;5080280;28;20016;-73
2023/09/12 06:12:10;;;;;;;86.03;41.13;;;20.30;99.90;;;;;;5086943;28;20427;-73
2023/09/12 06:14:36;;;;;;;93.18;41.22;;;20.30;99.90;;;;;;5090867;28;20019;-73
2023/09/12 06:17:02;;;;;;;90.57;43.33;;;20.30;99.90;;;;;;5081675;28;20023;-73
2023/09/12 06:19:27;;;;;;;98.78;45.30;;;20.30;99.90;;;;;;5089320;28;20520;-73
2023/09/12 06:21:53;;;;;;;95.97;44.72;;;20.30;99.90;;;;;;5074939;28;20454;-73
2023/09/12 06:24:23;;;;;;;93.35;44.00;;;20.40;99.90;;;;;;5083834;28;20077;-73
2023/09/12 06:26:48;;;;;;;99.88;46.10;;;20.40;99.90;;;;;;5090405;28;20107;-73
2023/09/12 06:29:14;;;;;;;99.22;45.22;;;20.40;99.90;;;;;;5087357;28;20095;-73
2023/09/12 06:31:43;;;;;;;93.80;44.03;;;20.40;99.90;;;;;;5086128;28;20392;-73
2023/09/12 06:34:10;;;;;;;95.07;44.72;;;20.40;99.90;;;;;;5078183;28;20044;-73
2023/09/12 06:36:35;;;;;;;97.63;46.03;;;20.50;99.90;;;;;;5085615;28;20091;-73
2023/09/12 06:39:03;;;;;;;94.93;44.42;;;20.50;99.90;;;;;;5088400;28;20116;-73
2023/09/12 06:41:29;;;;;;;99.57;46.90;;;20.50;99.90;;;;;;5077311;28;20083;-73
2023/09/12 06:43:57;;;;;;;97.28;46.55;;;20.50;99.90;;;;;;5090014;28;20047;-73
2023/09/12 06:46:22;;;;;;;98.95;46.00;;;20.60;99.90;;;;;;5091340;28;20023;-73
2023/09/12 06:48:50;;;;;;;93.85;44.72;;;20.60;99.90;;;;;;5088206;28;20028;-73
2023/09/12 06:51:16;;;;;;;88.90;45.45;;;20.70;99.90;;;;;;5082225;28;20451;-73
2023/09/12 06:53:42;;;;;;;96.68;46.22;;;20.70;99.90;;;;;;5082111;28;20032;-73
2023/09/12 06:56:08;;;;;;;101.13;46.95;;;20.70;99.90;;;;;;5079745;28;20059;-73
2023/09/12 06:58:34;;;;;;;100.20;46.70;;;20.70;99.90;;;;;;5087938;28;20113;-73
2023/09/12 07:01:04;;;;;;;89.95;44.58;;;20.80;99.90;;;;;;5077965;28;20040;-73
2023/09/12 07:03:30;;;;;;;95.20;46.60;;;20.80;99.90;;;;;;5084552;28;20020;-73
2023/09/12 07:05:56;;;;;;;95.35;44.85;;;20.80;99.90;;;;;;5090636;28;20385;-73
2023/09/12 07:08:21;;;;;;;94.07;45.17;;;20.80;99.90;;;;;;5081832;28;20020;-73
2023/09/12 07:10:47;;;;;;;95.22;44.08;;;20.80;99.90;;;;;;5077254;28;20027;-73
2023/09/12 07:13:13;;;;;;;97.22;44.90;;;20.80;99.90;;;;;;5086298;28;20032;-73
2023/09/12 07:15:38;;;;;;;98.93;45.90;;;20.80;99.90;;;;;;5087622;28;20040;-73
2023/09/12 07:18:06;;;;;;;92.35;44.38;;;20.80;99.90;;;;;;5074510;28;20380;-73
2023/09/12 07:20:35;;;;;;;92.97;45.58;;;20.90;99.90;;;;;;5088696;28;20483;-73
2023/09/12 07:23:00;;;;;;;85.35;44.22;;;20.90;99.90;;;;;;5090000;28;20024;-73
2023/09/12 07:25:26;;;;;;;94.78;43.85;;;21.00;99.90;;;;;;5093177;28;20039;-73
2023/09/12 07:27:52;;;;;;;87.53;43.58;;;20.90;99.90;;;;;;5094288;28;20035;-73
2023/09/12 07:30:18;;;;;;;90.00;43.67;;;21.00;99.90;;;;;;5086093;28;20491;-73
2023/09/12 07:32:44;;;;;;;85.10;42.72;;;21.10;99.90;;;;;;5083581;28;20055;-73
2023/09/12 07:35:10;;;;;;;83.13;41.35;;;21.10;99.90;;;;;;5076505;28;20055;-73
2023/09/12 07:37:36;;;;;;;74.97;39.90;;;21.10;99.90;;;;;;5087804;28;20508;-73
2023/09/12 07:40:09;;;;;;;80.20;40.80;;;21.20;99.90;;;;;;5084723;28;20056;-73
2023/09/12 07:42:34;;;;;;;81.18;39.22;;;21.10;99.90;;;;;;5090428;28;20042;-73
2023/09/12 07:45:03;;;;;;;69.72;37.45;;;21.20;99.90;;;;;;5086619;28;20020;-73
2023/09/12 07:47:28;;;;;;;67.65;36.35;;;21.20;99.90;;;;;;5075672;28;20024;-73
2023/09/12 07:49:54;;;;;;;70.70;38.25;;;21.20;99.90;;;;;;5090320;28;20038;-73
2023/09/12 07:52:20;;;;;;;64.03;36.63;;;21.20;99.90;;;;;;5088295;28;20429;-75
2023/09/12 07:54:46;;;;;;;65.25;36.17;;;21.30;99.90;;;;;;5080317;28;20046;-75
2023/09/12 07:57:12;;;;;;;65.90;36.53;;;21.30;99.90;;;;;;5086288;28;20016;-75
2023/09/12 07:59:37;;;;;;;66.20;38.00;;;21.40;99.90;;;;;;5083232;28;20403;-75
2023/09/12 08:02:03;;;;;;;67.85;38.25;;;21.50;99.90;;;;;;5076415;28;20551;-76
2023/09/12 08:04:29;;;;;;;75.35;39.72;;;21.50;99.90;;;;;;5089462;28;20027;-76
2023/09/12 08:06:55;;;;;;;69.15;40.25;;;21.60;99.90;;;;;;5088596;28;20020;-76
2023/09/12 08:09:20;;;;;;;70.65;38.78;;;21.70;99.90;;;;;;5083118;28;20042;-76
2023/09/12 08:11:46;;;;;;;74.35;41.25;;;21.70;99.90;;;;;;5085868;28;20105;-75
2023/09/12 08:14:11;;;;;;;68.47;40.33;;;21.90;99.90;;;;;;5088425;28;20042;-75
2023/09/12 08:16:37;;;;;;;73.32;40.05;;;22.00;99.90;;;;;;5083378;28;20425;-75
2023/09/12 08:19:03;;;;;;;74.30;42.05;;;22.20;99.90;;;;;;5082060;28;20119;-76
2023/09/12 08:21:29;;;;;;;74.15;43.30;;;22.30;99.90;;;;;;5083185;28;20035;-75
2023/09/12 08:23:54;;;;;;;68.70;42.50;;;22.40;99.90;;;;;;5083082;28;20024;-76
2023/09/12 08:26:20;;;;;;;68.05;41.95;;;22.50;99.90;;;;;;5085015;28;20089;-75
2023/09/12 08:28:46;;;;;;;70.90;43.35;;;22.50;99.90;;;;;;5080722;28;20019;-76
2023/09/12 08:31:11;;;;;;;74.30;44.42;;;22.60;99.90;;;;;;5086070;28;20024;-75
2023/09/12 08:33:37;;;;;;;70.93;44.72;;;22.70;99.90;;;;;;5089851;28;20475;-76
2023/09/12 08:36:03;;;;;;;68.95;42.72;;;22.80;99.90;;;;;;5088137;28;20024;-75
2023/09/12 08:38:28;;;;;;;69.93;42.92;;;22.90;99.90;;;;;;5088426;28;20487;-75
2023/09/12 08:40:54;;;;;;;67.00;43.00;;;23.10;99.90;;;;;;5075310;28;20533;-75
2023/09/12 08:43:20;;;;;;;69.05;41.45;;;23.20;99.90;;;;;;5072332;28;20025;-75
2023/09/12 08:45:47;;;;;;;63.30;40.28;;;23.40;99.90;;;;;;5088201;28;20032;-75
2023/09/12 08:48:13;;;;;;;61.78;40.30;;;23.50;99.90;;;;;;5080192;28;20025;-75
2023/09/12 08:50:39;;;;;;;62.33;40.35;;;23.70;99.90;;;;;;5089457;28;20397;-75
2023/09/12 08:53:05;;;;;;;60.17;39.35;;;23.80;99.90;;;;;;5079729;28;20017;-75
2023/09/12 08:55:37;;;;;;;55.50;35.17;;;24.00;99.90;;;;;;5080614;28;20043;-75
2023/09/12 08:58:04;;;;;;;54.25;36.13;;;24.10;99.90;;;;;;5095882;28;20105;-75
2023/09/12 09:00:30;;;;;;;52.88;34.55;;;24.10;99.90;;;;;;5083632;28;20016;-75
2023/09/12 09:02:56;;;;;;;54.72;34.60;;;24.10;99.90;;;;;;5075772;28;20024;-76
2023/09/12 09:05:23;;;;;;;46.65;32.65;;;24.10;99.90;;;;;;5088438;28;20036;-76
2023/09/12 09:07:49;;;;;;;48.08;32.65;;;24.10;99.90;;;;;;5086180;28;20120;-76
2023/09/12 09:10:17;;;;;;;49.17;33.03;;;24.10;99.90;;;;;;5089848;28;20107;-76
2023/09/12 09:12:45;;;;;;;40.95;29.27;;;24.10;99.90;;;;;;5086200;28;20024;-76
2023/09/12 09:15:28;;;;;;;43.17;26.73;;;24.20;99.90;;;;;;5089224;28;20028;-75
2023/09/12 09:17:55;;;;;;;44.45;30.23;;;24.30;99.90;;;;;;5085950;28;20020;-75
2023/09/12 09:20:32;;;;;;;47.47;30.45;;;24.50;99.90;;;;;;5093165;28;20061;-75
2023/09/12 09:23:00;;;;;;;39.05;27.38;;;24.60;99.90;;;;;;5086819;28;20039;-75
2023/09/12 09:25:26;;;;;;;42.40;29.27;;;24.70;99.90;;;;;;5084132;28;20317;-75
2023/09/12 09:27:52;;;;;;;38.95;28.58;;;24.90;99.90;;;;;;5095569;28;20028;-76
2023/09/12 09:30:18;;;;;;;42.80;29.70;;;25.10;99.90;;;;;;5086120;28;20040;-77
2023/09/12 09:32:45;;;;;;;40.50;29.05;;;25.30;99.90;;;;;;5089562;28;20023;-77
2023/09/12 09:35:11;;;;;;;41.50;29.25;;;25.50;99.90;;;;;;5098501;28;20028;-77
2023/09/12 09:37:38;;;;;;;39.83;27.50;;;25.60;99.90;;;;;;5087596;28;20023;-77
2023/09/12 09:40:07;;;;;;;40.15;30.00;;;25.60;99.90;;;;;;5081992;28;20052;-78
2023/09/12 09:42:32;;;;;;;37.75;25.58;;;25.70;99.90;;;;;;5086357;28;20020;-78
2023/09/12 09:44:58;;;;;;;36.28;24.83;;;25.60;99.90;;;;;;5085599;28;20046;-80
2023/09/12 09:47:24;;;;;;;33.67;24.67;;;25.60;99.90;;;;;;5087054;28;20353;-79
2023/09/12 09:49:51;;;;;;;33.83;25.40;;;25.60;99.90;;;;;;5088960;28;20424;-80
2023/09/12 09:52:26;;;;;;;35.42;25.13;;;25.50;99.90;;;;;;5084039;28;20028;-79
2023/09/12 09:54:52;;;;;;;38.40;26.17;;;25.40;99.90;;;;;;5087410;28;20563;-79
2023/09/12 09:57:17;;;;;;;40.80;28.58;;;25.30;99.90;;;;;;5087680;28;20016;-77
2023/09/12 09:59:52;;;;;;;37.15;26.23;;;25.20;99.90;;;;;;5090175;28;20048;-77
2023/09/12 10:02:22;;;;;;;44.35;27.27;;;25.20;99.90;;;;;;5077249;28;20494;-77
2023/09/12 10:04:50;;;;;;;38.13;26.02;;;25.20;99.90;;;;;;5085793;28;20126;-77
2023/09/12 10:07:17;;;;;;;40.03;27.38;;;25.30;99.90;;;;;;5082064;28;20071;-77
2023/09/12 10:09:43;;;;;;;43.55;29.10;;;25.40;99.90;;;;;;5077950;28;20017;-77
2023/09/12 10:12:10;;;;;;;36.65;25.88;;;25.40;99.90;;;;;;5085647;28;20147;-77
2023/09/12 10:14:39;;;;;;;34.30;24.02;;;25.50;99.90;;;;;;5080677;28;20031;-77
2023/09/12 10:17:04;;;;;;;36.13;24.55;;;25.60;99.90;;;;;;5080434;28;20082;-77
2023/09/12 10:19:37;;;;;;;38.08;28.35;;;25.70;99.90;;;;;;5087032;28;20685;-77
2023/09/12 10:22:27;;;;;;;49.10;33.33;;;25.70;99.90;;;;;;5106504;28;20386;-77
2023/09/12 10:24:55;;;;;;;51.33;32.03;;;25.60;99.90;;;;;;5081900;28;20105;-77
2023/09/12 10:27:24;;;;;;;49.45;34.05;;;25.60;99.90;;;;;;5088288;28;20027;-77
2023/09/12 10:29:52;;;;;;;54.15;33.33;;;25.50;99.90;;;;;;5089141;28;20386;-77
2023/09/12 10:32:22;;;;;;;54.53;34.15;;;25.40;99.90;;;;;;5072555;28;20056;-77
2023/09/12 10:34:49;;;;;;;54.15;33.75;;;25.20;99.90;;;;;;5075760;28;20020;-77
2023/09/12 10:37:21;;;;;;;47.45;31.20;;;25.10;99.90;;;;;;5076834;28;20028;-77
2023/09/12 10:39:48;;;;;;;53.28;33.65;;;25.00;99.90;;;;;;5075481;28;20013;-77
2023/09/12 10:42:16;;;;;;;50.05;33.25;;;24.80;99.90;;;;;;5071251;28;20103;-77
2023/09/12 10:44:42;;;;;;;49.65;33.72;;;24.70;99.90;;;;;;5083659;28;20053;-77
2023/09/12 10:47:09;;;;;;;46.95;31.02;;;24.50;99.90;;;;;;5086968;28;20020;-77
2023/09/12 10:49:34;;;;;;;55.30;33.22;;;24.50;99.90;;;;;;5077916;28;20120;-77
2023/09/12 10:52:00;;;;;;;65.88;36.67;;;24.40;99.90;;;;;;5080491;28;20115;-76
2023/09/12 10:54:40;;;;;;;67.90;37.30;;;24.30;99.90;;;;;;5085041;28;20067;-75
2023/09/12 10:57:13;;;;;;;59.90;36.08;;;24.20;99.90;;;;;;5088802;28;20074;-75
2023/09/12 11:00:10;;;;;;;61.88;38.67;;;24.00;99.90;;;;;;5084044;28;20036;-75
2023/09/12 11:02:43;;;;;;;60.88;37.72;;;23.80;99.90;;;;;;5079437;28;20108;-74
2023/09/12 11:05:27;;;;;;;54.95;36.63;;;23.70;99.90;;;;;;5087323;28;20024;-74
2023/09/12 11:07:57;;;;;;;59.60;38.25;;;23.60;99.90;;;;;;5087586;28;20047;-74
2023/09/12 11:10:24;;;;;;;58.47;38.42;;;23.50;99.90;;;;;;5080761;28;20020;-74
2023/09/12 11:12:54;;;;;;;61.45;41.00;;;23.50;99.90;;;;;;5079185;28;20032;-74
2023/09/12 11:15:25;;;;;;;58.53;39.17;;;23.40;99.90;;;;;;5084372;28;20484;-74
2023/09/12 11:18:04;;;;;;;66.45;43.45;;;23.30;99.90;;;;;;5077214;28;20421;-73
2023/09/12 11:21:09;;;;;;;59.35;37.28;;;23.30;99.90;;;;;;5088073;28;20043;-74
2023/09/12 11:23:35;;;;;;;51.40;34.65;;;23.20;99.90;;;;;;5088094;28;20551;-68
2023/09/12 11:26:06;;;;;;;46.83;31.13;;;23.10;99.90;;;;;;5087676;28;20179;-71
2023/09/12 11:28:32;;;;;;;44.53;30.15;;;23.00;99.90;;;;;;5081736;28;20036;-72
2023/09/12 11:30:58;;;;;;;47.67;31.00;;;23.00;99.90;;;;;;5084758;28;20013;-71
2023/09/12 11:33:25;;;;;;;42.85;29.20;;;22.90;99.90;;;;;;5086177;28;20024;-71
2023/09/12 11:35:55;;;;;;;47.08;30.20;;;22.80;99.90;;;;;;5081421;28;20103;-71
2023/09/12 11:38:31;;;;;;;47.58;32.65;;;22.80;99.90;;;;;;5070145;28;20040;-71
2023/09/12 11:40:58;;;;;;;46.58;31.85;;;22.70;99.90;;;;;;5079008;28;20024;-71
2023/09/12 11:43:25;;;;;;;43.25;32.13;;;22.70;99.90;;;;;;5083162;28;20394;-70
2023/09/12 11:45:52;;;;;;;51.53;33.83;;;22.60;99.90;;;;;;5086296;28;20020;-71
2023/09/12 11:48:18;;;;;;;58.38;36.10;;;22.70;99.90;;;;;;5088113;28;20058;-70
2023/09/12 11:50:53;;;;;;;46.08;31.83;;;22.70;99.90;;;;;;5081971;28;20020;-70
2023/09/12 11:53:22;;;;;;;49.50;30.97;;;22.70;99.90;;;;;;5086594;28;20426;-70
2023/09/12 11:55:53;;;;;;;48.38;31.33;;;22.70;99.90;;;;;;5073105;28;20094;-71
2023/09/12 11:58:20;;;;;;;47.70;31.30;;;22.80;99.90;;;;;;5081513;28;20063;-71
2023/09/12 12:00:53;;;;;;;51.17;32.55;;;22.90;99.90;;;;;;5087834;28;20153;-71
2023/09/12 12:03:21;;;;;;;50.58;32.40;;;23.00;99.90;;;;;;5082747;28;20031;-71
2023/09/12 12:05:47;;;;;;;53.53;32.28;;;23.00;99.90;;;;;;5084632;28;20024;-72
2023/09/12 12:08:14;;;;;;;42.47;30.23;;;23.20;99.90;;;;;;5090933;28;20027;-72
2023/09/12 12:10:41;;;;;;;46.97;30.20;;;23.30;99.90;;;;;;5079483;28;20031;-72
2023/09/12 12:13:20;;;;;;;41.85;27.48;;;23.40;99.90;;;;;;5076623;28;20041;-72
2023/09/12 12:15:46;;;;;;;40.95;27.08;;;23.50;99.90;;;;;;5085117;28;20448;-72
2023/09/12 12:18:12;;;;;;;36.70;22.73;;;23.50;99.90;;;;;;5083947;28;20115;-71
2023/09/12 12:20:37;;;;;;;35.67;20.65;;;23.50;99.90;;;;;;5083373;28;20410;-72
2023/09/12 12:23:03;;;;;;;33.38;20.38;;;23.50;99.90;;;;;;5088497;28;20103;-71
2023/09/12 12:25:36;;;;;;;35.05;21.17;;;23.50;99.90;;;;;;5078305;28;20032;-72